EDT,Max TemperatureF,Mean TemperatureF,Min TemperatureF,Max Dew PointF,MeanDew PointF,Min DewpointF,Max Humidity, Mean Humidity, Min Humidity, Max Sea Level PressureIn, Mean Sea Level PressureIn, Min Sea Level PressureIn, Max VisibilityMiles, Mean VisibilityMiles, Min VisibilityMiles, Max Wind SpeedMPH, Mean Wind SpeedMPH, Max Gust SpeedMPH,PrecipitationIn, CloudCover, Events, WindDirDegrees
2012-9-1,81,74,68,68,65,61,81,71,56,30.10,30.00,29.90,,,,9,5,16,0.00,,,58
2012-9-2,78,70,64,66,63,59,90,76,57,30.14,30.10,30.05,,,,7,2,,0.01,,,121
2012-9-3,73,70,66,66,63,60,93,79,62,30.22,30.18,30.13,,,,8,4,,0.00,,,78
2012-9-4,75,73,71,73,70,64,97,89,76,30.15,30.03,29.91,,,,8,4,,0.24,,,141
2012-9-5,79,76,70,74,72,68,96,92,84,29.90,29.82,29.78,,,,13,7,25,0.14,,,211
2012-9-6,75,70,68,70,67,64,96,86,73,29.92,29.89,29.83,,,,5,2,,0.00,,,99
2012-9-7,81,75,69,72,71,68,100,89,74,29.95,29.93,29.89,,,,7,3,,0.00,,,197
2012-9-8,80,76,70,74,71,65,97,87,77,29.92,29.80,29.68,,,,12,7,22,0.00,,,182
2012-9-9,73,67,61,60,57,54,87,71,55,29.87,29.83,29.77,,,,12,7,,0.03,,,336
2012-9-10,73,68,62,58,49,45,73,54,41,30.10,29.97,29.85,,,,15,12,26,0.00,,,330
2012-9-11,66,62,59,45,44,42,57,50,42,30.25,30.20,30.11,,,,13,10,22,0.04,,,322
2012-9-12,71,,71,58,58,58,63,63,63,30.38,30.38,30.38,,,,4,4,,0.00,,,230
2012-9-13,73,65,57,60,58,55,93,75,64,30.39,30.35,30.32,,,,8,3,,0.00,,,210
2012-9-14,72,64,57,65,62,54,90,86,73,30.29,30.17,30.12,,,,5,1,,0.00,,,205
2012-9-15,73,68,64,65,56,51,90,66,45,30.09,30.06,30.03,,,,15,6,22,0.01,,,316
2012-9-16,71,71,63,56,52,48,78,61,44,30.07,30.06,30.06,,,,8,5,,0.00,,,260
2012-9-17,70,61,52,56,53,48,86,70,57,30.13,30.10,30.08,,,,5,1,,0.00,,,200
2012-9-18,73,72,71,68,67,65,84,82,79,30.00,29.89,29.81,,,,14,11,26,0.00,,,155
2012-9-19,71,66,62,68,51,44,93,59,44,30.13,29.98,29.77,,,,15,10,23,0.21,,,319
2012-9-20,,,,,,,,,,,,,,,,,,,,,,
2012-9-21,66,64,60,56,54,51,83,72,67,30.12,30.07,30.02,,,,9,7,16,0.01,,,46
2012-9-22,70,63,57,66,59,55,97,85,65,30.01,29.94,29.85,,,,9,6,,0.00,,,127
2012-9-23,70,66,62,66,52,42,90,62,40,30.11,29.99,29.84,,,,12,8,18,0.06,,,305
2012-9-24,66,60,54,48,44,40,77,55,40,30.15,30.12,30.10,,,,10,5,16,0.00,,,308
2012-9-25,71,64,57,56,50,43,73,59,47,30.22,30.19,30.17,,,,13,6,23,0.00,,,215
2012-9-26,72,68,64,65,62,56,87,80,73,30.19,30.11,30.06,,,,10,8,21,0.00,,,203
2012-9-27,73,68,63,63,61,54,87,79,59,30.22,30.14,30.05,,,,7,5,,0.01,,,252
2012-9-28,68,65,62,66,58,51,93,79,65,30.22,30.09,29.93,,,,9,6,23,0.00,,,128
2012-9-29,64,62,59,61,58,56,97,90,83,29.93,29.91,29.88,,,,6,4,,0.20,,,14
2012-9-30,64,60,57,57,54,50,93,82,69,29.89,29.82,29.78,,,,9,6,16,0.04,,,350